Ride Results

Nanango Heritage (16-06-2018)
Ride distance: 80.0 km

Outcomes - Nanango Heritage (16-06-2018)
Division No. of Entries Retired / DNE Completed Withdrawn Ineligible V/O Percentage Completed
HW 18 - 15 2 - 1 83.33%
MW 25 - 23 1 - 1 92.00%
LW 22 - 17 1 - 4 77.27%
JN 11 - 9 - - 2 81.82%
Totals 76 - 64 4 - 8 84.21%
Results - Nanango Heritage (16-06-2018)
No. Rider Horse Place Time Leg Speeds Total
Km/Hr
H/R bpm
Heavyweight
5 Rod Field Brookleigh Louise 1 (BC) 4:49:00 16.0, 17.2 16.61 34, 40, 48 (Avg:44)
37 Olaf Lochtenberg Matta Mia Dayimi 2 5:09:27 15.6, 15.4 15.51 34, 46, 52 (Avg:49)
21 Paul Roosen Kinder Surprise Silkk 3 5:11:29 15.4, 15.4 15.41 30, 44, 51 (Avg:47)
72 Angela Waldock Riverfire 4 5:17:54 15.1, 15.0 15.10 32, 42, 47 (Avg:44)
28 Stan Zischke Glenewan Whisper 5 5:22:16 14.8, 14.9 14.89 32, 44, 48 (Avg:46)
82 Chris Nichols Bashan Memphis 6 5:31:08 15.2, 13.8 14.50 34, 48, 48 (Avg:48)
67 Peter Casey Rodborough Amaaya 7 5:32:43 15.5, 13.4 14.43 29, 40, 40 (Avg:40)
26 Doug Dart Cameo Top Hat 8 5:49:29 14.1, 13.3 13.73 34, 46, 44 (Avg:45)
13 Troy Butler Cairo's Crystal 9 6:06:04 14.8, 11.7 13.11 42, 50, 50 (Avg:50)
31 Barry Steele Aloha Rippling Gold 10 7:16:02 12.5, 9.8 11.01 36, 44, 44 (Avg:44)
65 Greg Garred Shannonwood Miss-Me 11 7:25:58 11.6, 10.0 10.76 36, 44, 50 (Avg:47)
52 Jago Blonde Silver Raider 12 7:55:27 13.5, 8.0 10.10 39, 45, 50 (Avg:47)
12 Robyn Pembroke Mt Eerwah Asheeba 13 8:05:18 10.1, 9.6 9.89 42, 46, 46 (Avg:46)
48 Sam Collins Rodborough Ausabi 14 8:19:19 9.8, 9.4 9.61 37, 46, 46 (Avg:46)
9 Gillian Taylor Cool Water Moonstone 15 8:46:01 9.9, 8.4 9.13 41, 49, 48 (Avg:48)
47 Maurice Gray Nathan Park Estasans Legacy Lame L2 0:00:00 16.8, 16.1 - 40, 48, 46 (Avg:47)
44 Tasha Jeremy Hirstglen Mack Widthdrawn L1 0:00:00 - - 27, 41 (Avg:41)
60 Brenda Davy Bashan Kayla Widthdrawn P/R 0:00:00 - - 30, 40 (Avg:40)
Middleweight
14 Stephen Gray Crystal Beau 1 (BC) 4:19:51 18.3, 18.5 18.47 37, 46, 47 (Avg:46)
46 Virginia Barber Warregal 2 4:22:17 18.0, 18.5 18.30 34, 46, 47 (Avg:46)
22 Gina Matthews Monarchs Knight 3 4:39:38 18.8, 15.7 17.17 34, 48, 55 (Avg:51)
61 Sasha Laws-King Heathfield's Flashrani 4 4:50:00 15.9, 17.1 16.55 32, 40, 40 (Avg:40)
81 Adam Garvin Simeon Shovan 5 5:06:43 16.7, 14.6 15.65 34, 52, 50 (Avg:51)
36 Linda Lochtenberg Matta Mia Kassanova 6 5:09:23 15.5, 15.4 15.51 40, 48, 52 (Avg:50)
19 Keiran Rowley Rhythm Dancer 7 5:51:49 13.6, 13.6 13.64 32, 46, 45 (Avg:45)
54 Jan Rohweder Woongarra Warrior 8 6:09:27 13.2, 12.6 12.99 35, 40, 47 (Avg:43)
39 Jacinta Stubbings Cameo Pygmalion 9 6:10:18 14.8, 11.4 12.96 34, 46, 50 (Avg:48)
6 Sherry Lowe Bellarine Believe 10 6:17:17 13.7, 11.8 12.72 30, 44, 46 (Avg:45)
42 Amanda Doyle Edenfels Pegasus 11 6:17:22 13.7, 11.8 12.72 34, 44, 50 (Avg:47)
23 Fiona Fenech Rosevale Park Bay Sarin 12 6:46:02 12.1, 11.4 11.82 32, 43, 46 (Avg:44)
27 Phoebe Wilson Charaway True Perle 13 6:52:08 13.0, 10.5 11.65 40, 40, 45 (Avg:42)
16 Liz Kirk Dunwingeri Aasalah 14 7:14:36 11.9, 10.2 11.04 32, 44, 49 (Avg:46)
17 Lorraine Ternouth Dunwingeri Zaza 15 7:14:49 12.0, 10.1 11.04 38, 47, 50 (Avg:48)
69 Bridget Macintyre Champ 16 7:39:08 11.9, 9.2 10.45 34, 44, 58 (Avg:51)
85 Jo Hamilton-Branigan Kholonial Boadecia 17 7:56:38 10.6, 9.5 10.07 33, 41, 43 (Avg:42)
84 Mel Singleton Kholonial Beauzolais 18 7:56:49 10.6, 9.5 10.07 35, 36, 50 (Avg:43)
76 Saasha Grogan Halo Rhapsody In Blue 19 8:00:00 11.2, 8.9 10.00 38, 42, 45 (Avg:43)
75 April Seeger S'Shaada Taesha 20 8:00:05 11.2, 8.9 10.00 43, 49, 54 (Avg:51)
63 Vanessa Gorecki Cedar Ridge Leeroy Brown 21 8:26:02 10.3, 8.7 9.49 32, 40, 46 (Avg:43)
32 Bec Cronin Petama Springtime Jewel 22 8:32:24 10.6, 8.3 9.37 38, 53, 52 (Avg:52)
1 Olga Bartlett Mt Eerwah Anastazia 23 8:45:58 9.9, 8.4 9.13 34, 41, 41 (Avg:41)
43 Jess Dakin Boonara Barbie Girl Gall or injury L1 0:00:00 19.5 - 33, 44 (Avg:44)
2 Jess Langridge Brookleigh Beyonce Widthdrawn P/R 0:00:00 - - -
Lightweight
24 Chez Barlow Caramea Jazira 1 (BC) 4:39:27 18.8, 15.7 17.18 30, 44, 44 (Avg:44)
40 Renae Chapman Shanelli-Park Phoenix 2 5:11:14 15.6, 15.2 15.42 34, 46, 47 (Avg:46)
8 Shelley Chapman Sahala Astronomer 3 5:11:18 15.6, 15.2 15.42 29, 40, 51 (Avg:45)
20 Janelle Roosen Greywood Magenta 4 5:11:24 15.4, 15.4 15.41 32, 46, 54 (Avg:50)
73 Amaya Thomas Indiana Seabreeze 5 5:17:42 15.1, 15.0 15.11 36, 43, 44 (Avg:43)
50 Sue Sutcliffe Ra-Anji Firefly 6 5:27:58 15.5, 13.8 14.64 32, 43, 45 (Avg:44)
18 Sabrina Stephens Cameo Gryffindor 7 5:51:53 13.6, 13.6 13.64 34, 46, 52 (Avg:49)
78 Candice Gurtner Kurrajong Blue Diamond 8 6:45:57 12.2, 11.4 11.82 32, 46, 47 (Avg:46)
34 Leigh Rich El Crown Prince 9 7:14:43 11.9, 10.2 11.04 40, 47, 49 (Avg:48)
3 Anna Wyroslak Stirling's Genevieve 10 7:15:14 11.2, 10.7 11.03 42, 38, 40 (Avg:39)
70 Kaylea Maher Castlebar Outlaw 11 7:21:14 11.3, 10.4 10.88 34, 44, 43 (Avg:43)
71 Essy Mountford Judstan Reynbeau 12 7:21:21 11.3, 10.4 10.88 40, 49, 56 (Avg:52)
66 Jess Kennedy Rodborough Safra 13 7:25:54 11.6, 10.0 10.76 30, 40, 43 (Avg:41)
11 Celeste Shields Mt Eerwah Romonous 14 8:04:27 10.1, 9.6 9.91 38, 43, 46 (Avg:44)
10 Janine Heard Mt Eerwah Solomon 15 8:05:12 10.1, 9.6 9.89 39, 45, 51 (Avg:48)
49 Karen Trundell Psacha 16 8:19:34 9.7, 9.4 9.61 34, 42, 44 (Avg:43)
55 Adriana Sardoni Maraahn E'Jaaz 17 8:45:53 10.2, 8.2 9.13 38, 47, 58 (Avg:52)
77 Fiona Anderson Matta Mia Abadan Lame L2 0:00:00 15.5, 11.3 - 32, 43, 52 (Avg:47)
64 Virginia Dale Moondarra El Diron Widthdrawn L2 0:00:00 - - 36, 48, 55 (Avg:51)
35 Carol Kite Cannondale Banjo Heart Rate L1 0:00:00 12.0 - 55, 70 (Avg:70)
15 Chelsea Moore Miva Zamil Lame L1 0:00:00 10.1 - 36, 47 (Avg:47)
33 Amanda Powell Zenith Park Qadir Lame L1 0:00:00 11.8 - 42, 49 (Avg:49)
Junior
45 Georgie Barber Concerto 1 (BC) 4:22:13 18.0, 18.5 18.31 39, 46, 48 (Avg:47)
25 Charlize Renner Edenfels Crystal Kaz 2 5:09:34 15.5, 15.4 15.51 28, 44, 47 (Avg:45)
83 Mel Simpson Bashan Silver Nadeer 3 5:30:58 15.2, 13.8 14.50 35, 44, 48 (Avg:46)
7 Maeve Paten Picnic Park Smart Return 4 6:17:29 13.6, 11.8 12.72 36, 39, 46 (Avg:42)
38 Tahlea Lochtenberg Quiegly 5 6:52:11 11.9, 11.3 11.65 42, 48, 52 (Avg:50)
62 Noah Hoogland Bonds Ballistic 6 8:26:11 10.3, 8.7 9.48 28, 37, 42 (Avg:39)
57 Jet North Kelkette Park Silver Envoy 7 8:26:45 7.8, 11.9 9.47 37, 38, 46 (Avg:42)
58 Jorja Gibbons Bashan Tahpenes 8 8:27:41 7.8, 11.8 9.45 40, 41, 49 (Avg:45)
56 Jasmine Perrier Ardair Skoda 9 8:46:09 10.2, 8.2 9.12 36, 42, 55 (Avg:48)
80 Louis Ryan Manet Ibn Rashan Lame L2 0:00:00 16.7, 14.6 - 40, 42, 48 (Avg:45)
79 Molly Choyce Faris Zyrtec Lame L1 0:00:00 7.8 - 35, 40 (Avg:40)